Time;durP1;ratioP1;P1;durP2;ratioP2;P2;SDS_P1;SDS_P2;PMS_P1;PMS_P2;Temp;Humidity;BMP_temperature;BMP_pressure;BME280_temperature;BME280_humidity;BME280_pressure;Samples;Min_cycle;Max_cycle;Signal;HPM_P1;HPM_P2
2022/06/17 00:00:04;;;;;;;;;;;;;;;;;;343109;28;1000;-75
2022/06/17 00:00:15;;;;;;;;;;;;;;;;;;343028;28;855;-75
2022/06/17 00:00:26;;;;;;;;;;;;;;;;;;343109;28;930;-75
2022/06/17 00:00:36;;;;;;;;;;;;;;;;;;343114;28;905;-75
2022/06/17 00:00:48;;;;;;;;;;;;;;;;;;342978;28;1774;-74
2022/06/17 00:00:59;;;;;;;;;;;;;;;;;;344167;28;922;-74
2022/06/17 00:01:09;;;;;;;;;;;;;;;;;;344435;28;960;-75
2022/06/17 00:01:21;;;;;;;;;;;;;;;;;;344407;28;849;-75
2022/06/17 00:01:31;;;;;;;;;;;;;;;;;;344512;28;929;-75
2022/06/17 00:01:41;;;;;;;;;;;;;;;;;;344046;28;1718;-74
2022/06/17 00:01:52;;;;;;;;;;;;;;;;;;343834;28;1342;-74
2022/06/17 00:02:02;;;;;;;;;;;;;;;;;;344433;28;917;-74
2022/06/17 00:02:12;;;;;;;;;;;;;;;;;;343526;28;1836;-74
2022/06/17 00:02:23;;;;;;;;;;;;;;;;;;344245;28;976;-75
2022/06/17 00:02:33;;;;;;;;;;;;;;;;;;344240;28;1024;-74
2022/06/17 00:02:43;;;;;;;;;;;;;;;;;;344267;28;1025;-74
2022/06/17 00:02:53;;;;;;;;;;;;;;;;;;344183;28;1084;-75
2022/06/17 00:03:04;;;;;;;;;;;;;;;;;;344438;28;945;-75
2022/06/17 00:03:14;;;;;;;;;;;;;;;;;;344405;28;977;-75
2022/06/17 00:03:26;;;;;;;;;;;;;;;;;;344431;28;774;-75
2022/06/17 00:03:36;;;;;;;;;;;;;;;;;;344461;28;869;-74
2022/06/17 00:03:48;;;;;;;;;;;;;;;;;;344482;28;857;-74
2022/06/17 00:03:58;;;;;;;;;;;;;;;;;;344385;28;1008;-75
2022/06/17 00:04:09;;;;;;;;;;;;;;;;;;344369;28;838;-74
2022/06/17 00:04:19;;;;;;;;;;;;;;;;;;344465;28;850;-74
2022/06/17 00:04:29;;;;;;;;;;;;;;;;;;344374;28;932;-74
2022/06/17 00:04:39;;;;;;;;;;;;;;;;;;344459;28;884;-75
2022/06/17 00:04:49;;;;;;;;;;;;;;;;;;344249;28;1017;-74
2022/06/17 00:05:00;;;;;;;;;;;;;;;;;;344411;28;954;-74
2022/06/17 00:05:10;;;;;;;;;;;;;;;;;;344468;28;802;-75
2022/06/17 00:05:20;;;;;;;;;;;;;;;;;;344227;28;989;-74
2022/06/17 00:05:31;;;;;;;;;;;;;;;;;;344380;28;975;-74
2022/06/17 00:05:41;;;;;;;;;;;;;;;;;;344460;28;858;-74
2022/06/17 00:05:53;;;;;;;;;;;;;;;;;;344443;28;874;-75
2022/06/17 00:06:04;;;;;;;;;;;;;;;;;;344372;28;1012;-75
2022/06/17 00:06:14;;;;;;;;;;;;;;;;;;344378;28;921;-75
2022/06/17 00:06:26;;;;;;;;;;;;;;;;;;344369;28;921;-75
2022/06/17 00:06:38;;;;;;;;;;;;;;;;;;344450;28;1037;-74
2022/06/17 00:06:50;;;;;;;;;;;;;;;;;;343945;28;1530;-74
2022/06/17 00:07:05;;;;;;;;;;;;;;;;;;344442;28;988;-75
2022/06/17 00:07:16;;;;;;;;;;;;;;;;;;344415;28;886;-75
2022/06/17 00:07:26;;;;;;;;;;;;;;;;;;344204;28;1534;-74
2022/06/17 00:07:38;;;;;;;;;;;;;;;;;;344272;28;1576;-75
2022/06/17 00:07:48;;;;;;;;;;;;;;;;;;344481;28;929;-74
2022/06/17 00:07:59;;;;;;;;;;;;;;;;;;344243;28;1555;-74
2022/06/17 00:08:13;;;;;;;;;;;;;;;;;;344427;28;910;-74
2022/06/17 00:08:25;;;;;;;;;;;;;;;;;;344367;28;850;-75
2022/06/17 00:08:38;;;;;;;;;;;;;;;;;;344445;28;779;-75
2022/06/17 00:08:50;;;;;;;;;;;;;;;;;;344368;28;1115;-75
2022/06/17 00:09:00;;;;;;;;;;;;;;;;;;344457;28;976;-74
2022/06/17 00:09:12;;;;;;;;;;;;;;;;;;344400;28;893;-75
2022/06/17 00:09:23;;;;;;;;;;;;;;;;;;343129;28;1817;-74
2022/06/17 00:09:35;;;;;;;;;;;;;;;;;;343049;28;1000;-75
2022/06/17 00:09:45;;;;;;;;;;;;;;;;;;343144;28;890;-75
2022/06/17 00:09:55;;;;;;;;;;;;;;;;;;343093;28;910;-75
2022/06/17 00:10:10;;;;;;;;;;;;;;;;;;343114;28;870;-74
2022/06/17 00:10:22;;;;;;;;;;;;;;;;;;343071;28;890;-75
2022/06/17 00:10:33;;;;;;;;;;;;;;;;;;343042;28;1399;-75
2022/06/17 00:10:43;;;;;;;;;;;;;;;;;;343099;28;894;-75
2022/06/17 00:10:53;;;;;;;;;;;;;;;;;;343120;28;961;-75
2022/06/17 00:11:09;;;;;;;;;;;;;;;;;;343124;28;795;-75
2022/06/17 00:11:22;;;;;;;;;;;;;;;;;;343126;28;941;-75
2022/06/17 00:11:34;;;;;;;;;;;;;;;;;;343141;28;798;-75
2022/06/17 00:11:45;;;;;;;;;;;;;;;;;;342819;28;1739;-74
2022/06/17 00:11:55;;;;;;;;;;;;;;;;;;343957;28;1414;-74
2022/06/17 00:12:07;;;;;;;;;;;;;;;;;;344497;28;787;-75
2022/06/17 00:12:17;;;;;;;;;;;;;;;;;;344355;28;831;-75
2022/06/17 00:12:27;;;;;;;;;;;;;;;;;;344397;28;928;-74
2022/06/17 00:12:38;;;;;;;;;;;;;;;;;;344392;28;1000;-75
2022/06/17 00:12:49;;;;;;;;;;;;;;;;;;344431;28;929;-75
2022/06/17 00:12:59;;;;;;;;;;;;;;;;;;344454;28;902;-74
2022/06/17 00:13:18;;;;;;;;;;;;;;;;;;344438;28;1008;-75
2022/06/17 00:13:28;;;;;;;;;;;;;;;;;;344344;28;1064;-75
2022/06/17 00:13:38;;;;;;;;;;;;;;;;;;344438;28;984;-74
2022/06/17 00:13:48;;;;;;;;;;;;;;;;;;344479;28;791;-75
2022/06/17 00:13:59;;;;;;;;;;;;;;;;;;344422;28;986;-75
2022/06/17 00:14:13;;;;;;;;;;;;;;;;;;344382;28;932;-75
2022/06/17 00:14:25;;;;;;;;;;;;;;;;;;344388;28;932;-74
2022/06/17 00:15:11;;;;;;;;;;;;;;;;;;344320;28;1036;-75
2022/06/17 00:15:11;;;;;;;;;;;;;;;;;;344461;28;937;-75
2022/06/17 00:15:22;;;;;;;;;;;;;;;;;;344438;28;933;-75
2022/06/17 00:15:32;;;;;;;;;;;;;;;;;;344415;28;969;-74
2022/06/17 00:15:44;;;;;;;;;;;;;;;;;;344411;28;1902;-75
2022/06/17 00:15:55;;;;;;;;;;;;;;;;;;344360;28;969;-75
2022/06/17 00:16:08;;;;;;;;;;;;;;;;;;344469;28;972;-74
2022/06/17 00:16:19;;;;;;;;;;;;;;;;;;344465;28;833;-74
2022/06/17 00:16:30;;;;;;;;;;;;;;;;;;344347;28;936;-75
2022/06/17 00:16:40;;;;;;;;;;;;;;;;;;344415;28;960;-75
2022/06/17 00:16:51;;;;;;;;;;;;;;;;;;344429;28;945;-75
2022/06/17 00:17:07;;;;;;;;;;;;;;;;;;344479;28;987;-75
2022/06/17 00:17:17;;;;;;;;;;;;;;;;;;344454;28;949;-75
2022/06/17 00:17:27;;;;;;;;;;;;;;;;;;344421;28;847;-75
2022/06/17 00:17:38;;;;;;;;;;;;;;;;;;344441;28;925;-75
2022/06/17 00:17:50;;;;;;;;;;;;;;;;;;344464;28;779;-75
2022/06/17 00:18:01;;;;;;;;;;;;;;;;;;344443;28;961;-75
2022/06/17 00:18:15;;;;;;;;;;;;;;;;;;344447;28;814;-75
2022/06/17 00:18:25;;;;;;;;;;;;;;;;;;344446;28;984;-75
2022/06/17 00:18:35;;;;;;;;;;;;;;;;;;344342;28;993;-74
2022/06/17 00:18:46;;;;;;;;;;;;;;;;;;344466;28;984;-74
2022/06/17 00:18:56;;;;;;;;;;;;;;;;;;344373;28;789;-74
2022/06/17 00:19:06;;;;;;;;;;;;;;;;;;344462;28;934;-75
2022/06/17 00:19:18;;;;;;;;;;;;;;;;;;344454;28;944;-75
2022/06/17 00:19:28;;;;;;;;;;;;;;;;;;344502;28;816;-75
2022/06/17 00:19:39;;;;;;;;;;;;;;;;;;344391;28;760;-74
2022/06/17 00:19:49;;;;;;;;;;;;;;;;;;344443;28;893;-74
2022/06/17 00:19:59;;;;;;;;;;;;;;;;;;344431;28;992;-74
2022/06/17 00:20:12;;;;;;;;;;;;;;;;;;344458;28;901;-75
2022/06/17 00:20:23;;;;;;;;;;;;;;;;;;344450;28;917;-75
2022/06/17 00:20:34;;;;;;;;;;;;;;;;;;344271;28;1408;-75
2022/06/17 00:20:45;;;;;;;;;;;;;;;;;;344438;28;785;-75
2022/06/17 00:20:55;;;;;;;;;;;;;;;;;;344454;28;905;-75
2022/06/17 00:21:06;;;;;;;;;;;;;;;;;;344473;28;818;-75
2022/06/17 00:21:21;;;;;;;;;;;;;;;;;;344442;28;948;-75
2022/06/17 00:21:37;;;;;;;;;;;;;;;;;;344408;28;885;-74
2022/06/17 00:21:48;;;;;;;;;;;;;;;;;;343926;28;1820;-74
2022/06/17 00:22:00;;;;;;;;;;;;;;;;;;344289;28;1437;-74
2022/06/17 00:22:10;;;;;;;;;;;;;;;;;;344458;28;1000;-75
2022/06/17 00:22:21;;;;;;;;;;;;;;;;;;344425;28;838;-75
2022/06/17 00:22:31;;;;;;;;;;;;;;;;;;344413;28;953;-74
2022/06/17 00:22:42;;;;;;;;;;;;;;;;;;344117;28;1630;-74
2022/06/17 00:22:53;;;;;;;;;;;;;;;;;;344072;28;1542;-74
2022/06/17 00:23:03;;;;;;;;;;;;;;;;;;344317;28;1572;-75
2022/06/17 00:23:15;;;;;;;;;;;;;;;;;;343084;28;925;-75
2022/06/17 00:23:27;;;;;;;;;;;;;;;;;;343078;28;1029;-75
2022/06/17 00:23:37;;;;;;;;;;;;;;;;;;343089;28;1615;-74
2022/06/17 00:23:47;;;;;;;;;;;;;;;;;;343117;28;973;-74
2022/06/17 00:23:59;;;;;;;;;;;;;;;;;;343091;28;997;-74
2022/06/17 00:24:13;;;;;;;;;;;;;;;;;;343053;28;981;-75
2022/06/17 00:24:25;;;;;;;;;;;;;;;;;;343118;28;985;-75
2022/06/17 00:24:36;;;;;;;;;;;;;;;;;;343111;28;933;-75
2022/06/17 00:24:48;;;;;;;;;;;;;;;;;;343040;28;965;-74
2022/06/17 00:24:58;;;;;;;;;;;;;;;;;;344149;28;1593;-74
2022/06/17 00:25:15;;;;;;;;;;;;;;;;;;344466;28;814;-75
2022/06/17 00:25:25;;;;;;;;;;;;;;;;;;344392;28;905;-74
2022/06/17 00:25:36;;;;;;;;;;;;;;;;;;344408;28;984;-75
2022/06/17 00:25:48;;;;;;;;;;;;;;;;;;344368;28;858;-75
2022/06/17 00:25:58;;;;;;;;;;;;;;;;;;344433;28;929;-75
2022/06/17 00:26:10;;;;;;;;;;;;;;;;;;344455;28;866;-74
2022/06/17 00:26:20;;;;;;;;;;;;;;;;;;344436;28;868;-74
2022/06/17 00:26:30;;;;;;;;;;;;;;;;;;344409;28;1025;-75
2022/06/17 00:26:40;;;;;;;;;;;;;;;;;;344393;28;993;-74
2022/06/17 00:26:51;;;;;;;;;;;;;;;;;;344409;28;969;-75
2022/06/17 00:27:02;;;;;;;;;;;;;;;;;;344353;28;992;-75
2022/06/17 00:27:12;;;;;;;;;;;;;;;;;;344438;28;933;-75
2022/06/17 00:27:22;;;;;;;;;;;;;;;;;;344416;28;953;-75
2022/06/17 00:27:32;;;;;;;;;;;;;;;;;;344421;28;925;-74
2022/06/17 00:27:43;;;;;;;;;;;;;;;;;;344390;28;1093;-75
2022/06/17 00:27:53;;;;;;;;;;;;;;;;;;344418;28;945;-74
2022/06/17 00:28:08;;;;;;;;;;;;;;;;;;344495;28;839;-75
2022/06/17 00:28:20;;;;;;;;;;;;;;;;;;344386;28;941;-75
2022/06/17 00:28:30;;;;;;;;;;;;;;;;;;344421;28;953;-75
2022/06/17 00:28:40;;;;;;;;;;;;;;;;;;344435;28;941;-74
2022/06/17 00:28:50;;;;;;;;;;;;;;;;;;344459;28;905;-75
2022/06/17 00:29:00;;;;;;;;;;;;;;;;;;344354;28;869;-75
2022/06/17 00:29:11;;;;;;;;;;;;;;;;;;344443;28;980;-74
2022/06/17 00:29:24;;;;;;;;;;;;;;;;;;344500;28;874;-75
2022/06/17 00:29:34;;;;;;;;;;;;;;;;;;344404;28;961;-75
2022/06/17 00:29:44;;;;;;;;;;;;;;;;;;344397;28;893;-75
2022/06/17 00:29:54;;;;;;;;;;;;;;;;;;344431;28;918;-74
2022/06/17 00:30:13;;;;;;;;;;;;;;;;;;344428;28;997;-75
2022/06/17 00:30:25;;;;;;;;;;;;;;;;;;344162;28;1224;-75
2022/06/17 00:30:35;;;;;;;;;;;;;;;;;;344419;28;1012;-74
2022/06/17 00:30:46;;;;;;;;;;;;;;;;;;344424;28;1012;-74
2022/06/17 00:30:57;;;;;;;;;;;;;;;;;;344376;28;922;-74
2022/06/17 00:31:07;;;;;;;;;;;;;;;;;;344404;28;1039;-75
2022/06/17 00:31:17;;;;;;;;;;;;;;;;;;344401;28;877;-75
2022/06/17 00:31:27;;;;;;;;;;;;;;;;;;344435;28;980;-75
2022/06/17 00:31:38;;;;;;;;;;;;;;;;;;344484;28;874;-75
2022/06/17 00:31:49;;;;;;;;;;;;;;;;;;343808;28;1782;-74
2022/06/17 00:31:59;;;;;;;;;;;;;;;;;;344103;28;1413;-74
2022/06/17 00:32:09;;;;;;;;;;;;;;;;;;344435;28;984;-74
2022/06/17 00:32:19;;;;;;;;;;;;;;;;;;344452;28;921;-75
2022/06/17 00:32:29;;;;;;;;;;;;;;;;;;344382;28;905;-75
2022/06/17 00:32:40;;;;;;;;;;;;;;;;;;344474;28;810;-74
2022/06/17 00:32:57;;;;;;;;;;;;;;;;;;344408;28;965;-75
2022/06/17 00:33:08;;;;;;;;;;;;;;;;;;344316;28;877;-75
2022/06/17 00:33:18;;;;;;;;;;;;;;;;;;344428;28;985;-74
2022/06/17 00:33:28;;;;;;;;;;;;;;;;;;344464;28;842;-74
2022/06/17 00:33:39;;;;;;;;;;;;;;;;;;344437;28;1027;-75
2022/06/17 00:33:49;;;;;;;;;;;;;;;;;;344360;28;954;-75
2022/06/17 00:33:59;;;;;;;;;;;;;;;;;;344407;28;945;-75
2022/06/17 00:34:09;;;;;;;;;;;;;;;;;;344407;28;917;-75
2022/06/17 00:34:20;;;;;;;;;;;;;;;;;;344378;28;997;-75
2022/06/17 00:34:30;;;;;;;;;;;;;;;;;;343645;28;1816;-74
2022/06/17 00:34:40;;;;;;;;;;;;;;;;;;343132;28;1545;-74
2022/06/17 00:34:50;;;;;;;;;;;;;;;;;;344338;28;1529;-74
2022/06/17 00:35:01;;;;;;;;;;;;;;;;;;344417;28;917;-74
2022/06/17 00:35:12;;;;;;;;;;;;;;;;;;344383;28;937;-75
2022/06/17 00:35:24;;;;;;;;;;;;;;;;;;344428;28;878;-75
2022/06/17 00:35:39;;;;;;;;;;;;;;;;;;343472;28;1793;-74
2022/06/17 00:35:51;;;;;;;;;;;;;;;;;;344276;28;1463;-75
2022/06/17 00:36:03;;;;;;;;;;;;;;;;;;344392;28;984;-75
2022/06/17 00:36:15;;;;;;;;;;;;;;;;;;344474;28;795;-75
2022/06/17 00:36:25;;;;;;;;;;;;;;;;;;344383;28;937;-75
2022/06/17 00:36:36;;;;;;;;;;;;;;;;;;344447;28;767;-74
2022/06/17 00:36:46;;;;;;;;;;;;;;;;;;344428;28;925;-75
2022/06/17 00:36:57;;;;;;;;;;;;;;;;;;344350;28;921;-75
2022/06/17 00:37:11;;;;;;;;;;;;;;;;;;344410;28;953;-75
2022/06/17 00:37:21;;;;;;;;;;;;;;;;;;344342;28;893;-74
2022/06/17 00:37:31;;;;;;;;;;;;;;;;;;344404;28;996;-74
2022/06/17 00:37:42;;;;;;;;;;;;;;;;;;344416;28;993;-75
2022/06/17 00:37:52;;;;;;;;;;;;;;;;;;344352;28;1000;-75
2022/06/17 00:38:03;;;;;;;;;;;;;;;;;;344393;28;941;-74
2022/06/17 00:38:14;;;;;;;;;;;;;;;;;;344412;28;1004;-75
2022/06/17 00:38:28;;;;;;;;;;;;;;;;;;344392;28;920;-75
2022/06/17 00:38:38;;;;;;;;;;;;;;;;;;344430;28;942;-74
2022/06/17 00:38:50;;;;;;;;;;;;;;;;;;344377;28;909;-75
2022/06/17 00:39:00;;;;;;;;;;;;;;;;;;344389;28;965;-75
2022/06/17 00:39:13;;;;;;;;;;;;;;;;;;344414;28;886;-74
2022/06/17 00:39:27;;;;;;;;;;;;;;;;;;344309;28;961;-74
2022/06/17 00:39:37;;;;;;;;;;;;;;;;;;344429;28;952;-75
2022/06/17 00:39:48;;;;;;;;;;;;;;;;;;344373;28;958;-74
2022/06/17 00:39:58;;;;;;;;;;;;;;;;;;344392;28;945;-74
2022/06/17 00:40:22;;;;;;;;;;;;;;;;;;344463;28;815;-74
2022/06/17 00:40:34;;;;;;;;;;;;;;;;;;343995;28;1330;-74
2022/06/17 00:40:44;;;;;;;;;;;;;;;;;;344268;28;1847;-75
2022/06/17 00:40:56;;;;;;;;;;;;;;;;;;344425;28;914;-75
2022/06/17 00:41:26;;;;;;;;;;;;;;;;;;344363;28;922;-74
2022/06/17 00:41:38;;;;;;;;;;;;;;;;;;343660;28;1105;-74
2022/06/17 00:41:51;;;;;;;;;;;;;;;;;;344251;28;1734;-74
2022/06/17 00:42:05;;;;;;;;;;;;;;;;;;343533;28;1421;-74
2022/06/17 00:42:18;;;;;;;;;;;;;;;;;;342994;28;1004;-75
2022/06/17 00:42:28;;;;;;;;;;;;;;;;;;342874;28;1817;-74
2022/06/17 00:42:39;;;;;;;;;;;;;;;;;;343073;28;950;-75
2022/06/17 00:42:50;;;;;;;;;;;;;;;;;;343033;28;973;-74
2022/06/17 00:43:01;;;;;;;;;;;;;;;;;;343046;28;922;-74
2022/06/17 00:43:33;;;;;;;;;;;;;;;;;;343065;28;977;-75
2022/06/17 00:43:44;;;;;;;;;;;;;;;;;;342936;28;1009;-74
2022/06/17 00:43:54;;;;;;;;;;;;;;;;;;343094;28;871;-75
2022/06/17 00:44:23;;;;;;;;;;;;;;;;;;343106;28;866;-74
2022/06/17 00:44:39;;;;;;;;;;;;;;;;;;343025;28;973;-74
2022/06/17 00:44:53;;;;;;;;;;;;;;;;;;343036;28;1088;-74
2022/06/17 00:45:09;;;;;;;;;;;;;;;;;;342994;28;1076;-74
2022/06/17 00:45:31;;;;;;;;;;;;;;;;;;343077;28;961;-73
2022/06/17 00:45:46;;;;;;;;;;;;;;;;;;343036;28;1037;-73
2022/06/17 04:41:51;;;;;;;;;;;;;;;;;;352437;27;1349;-73
2022/06/17 04:42:05;;;;;;;;;;;;;;;;;;352567;28;963;-73
2022/06/17 04:42:20;;;;;;;;;;;;;;;;;;352584;27;803;-72
2022/06/17 04:42:33;;;;;;;;;;;;;;;;;;352566;27;785;-72
2022/06/17 04:42:44;;;;;;;;;;;;;;;;;;352607;28;833;-73
2022/06/17 04:42:55;;;;;;;;;;;;;;;;;;352528;28;910;-73
2022/06/17 04:43:09;;;;;;;;;;;;;;;;;;352507;28;786;-71
2022/06/17 04:43:25;;;;;;;;;;;;;;;;;;352651;27;774;-73
2022/06/17 04:43:40;;;;;;;;;;;;;;;;;;352559;27;1043;-73
2022/06/17 04:43:52;;;;;;;;;;;;;;;;;;352216;27;928;-73
2022/06/17 04:44:05;;;;;;;;;;;;;;;;;;352288;28;889;-73
2022/06/17 04:44:15;;;;;;;;;;;;;;;;;;352545;27;947;-74
2022/06/17 04:44:25;;;;;;;;;;;;;;;;;;352526;28;837;-73
2022/06/17 04:44:36;;;;;;;;;;;;;;;;;;352607;27;815;-73
2022/06/17 04:44:48;;;;;;;;;;;;;;;;;;352567;27;782;-74
2022/06/17 04:44:59;;;;;;;;;;;;;;;;;;352481;28;1058;-73
2022/06/17 04:45:17;;;;;;;;;;;;;;;;;;352556;28;912;-73
2022/06/17 04:45:29;;;;;;;;;;;;;;;;;;352548;28;920;-72
2022/06/17 04:45:39;;;;;;;;;;;;;;;;;;352525;28;865;-73
2022/06/17 04:45:53;;;;;;;;;;;;;;;;;;352571;28;774;-74
2022/06/17 04:46:13;;;;;;;;;;;;;;;;;;352512;28;820;-75
2022/06/17 04:46:41;;;;;;;;;;;;;;;;;;352565;27;884;-73
2022/06/17 04:46:58;;;;;;;;;;;;;;;;;;352512;28;928;-73
2022/06/17 04:47:13;;;;;;;;;;;;;;;;;;352578;28;963;-72
2022/06/17 04:47:24;;;;;;;;;;;;;;;;;;352498;28;859;-73
2022/06/17 04:47:34;;;;;;;;;;;;;;;;;;352579;28;809;-72
2022/06/17 04:47:45;;;;;;;;;;;;;;;;;;352442;27;1280;-72
2022/06/17 04:47:57;;;;;;;;;;;;;;;;;;352541;27;986;-73
2022/06/17 04:48:08;;;;;;;;;;;;;;;;;;352563;28;841;-72
2022/06/17 04:48:18;;;;;;;;;;;;;;;;;;352590;28;859;-73
2022/06/17 04:48:29;;;;;;;;;;;;;;;;;;352549;28;793;-72
2022/06/17 04:48:39;;;;;;;;;;;;;;;;;;352435;28;1158;-73
2022/06/17 04:48:51;;;;;;;;;;;;;;;;;;352455;28;845;-74
2022/06/17 04:49:03;;;;;;;;;;;;;;;;;;352459;28;853;-73
2022/06/17 04:49:21;;;;;;;;;;;;;;;;;;352483;28;790;-74
2022/06/17 04:49:33;;;;;;;;;;;;;;;;;;352412;28;915;-73
2022/06/17 04:49:49;;;;;;;;;;;;;;;;;;352429;28;848;-73
2022/06/17 04:50:02;;;;;;;;;;;;;;;;;;352372;28;936;-73
2022/06/17 04:50:18;;;;;;;;;;;;;;;;;;352442;28;904;-73
2022/06/17 04:50:30;;;;;;;;;;;;;;;;;;352373;28;959;-73
2022/06/17 04:50:40;;;;;;;;;;;;;;;;;;352556;28;904;-73
2022/06/17 04:50:51;;;;;;;;;;;;;;;;;;352585;28;975;-73
2022/06/17 04:51:02;;;;;;;;;;;;;;;;;;352539;28;907;-73
2022/06/17 04:51:13;;;;;;;;;;;;;;;;;;352514;28;912;-73
2022/06/17 04:51:25;;;;;;;;;;;;;;;;;;352521;28;916;-73
2022/06/17 04:51:35;;;;;;;;;;;;;;;;;;352109;28;1771;-73
2022/06/17 04:51:47;;;;;;;;;;;;;;;;;;351056;27;1931;-73
2022/06/17 04:52:03;;;;;;;;;;;;;;;;;;351165;28;773;-72
2022/06/17 04:52:22;;;;;;;;;;;;;;;;;;351132;28;1078;-72
2022/06/17 04:52:43;;;;;;;;;;;;;;;;;;352376;28;1639;-73
2022/06/17 04:52:55;;;;;;;;;;;;;;;;;;352529;27;857;-72
2022/06/17 04:53:05;;;;;;;;;;;;;;;;;;352511;28;1188;-73
2022/06/17 04:53:16;;;;;;;;;;;;;;;;;;352556;28;979;-73
2022/06/17 04:53:27;;;;;;;;;;;;;;;;;;351899;27;1623;-72
2022/06/17 04:53:42;;;;;;;;;;;;;;;;;;351654;28;900;-72
2022/06/17 04:53:53;;;;;;;;;;;;;;;;;;352308;28;1280;-73
2022/06/17 04:54:04;;;;;;;;;;;;;;;;;;351178;28;817;-72
2022/06/17 04:54:15;;;;;;;;;;;;;;;;;;351121;28;960;-73
2022/06/17 04:54:27;;;;;;;;;;;;;;;;;;351856;28;1606;-74
2022/06/17 04:54:38;;;;;;;;;;;;;;;;;;352739;28;857;-79
2022/06/17 04:54:49;;;;;;;;;;;;;;;;;;352722;28;1046;-73
2022/06/17 04:55:00;;;;;;;;;;;;;;;;;;352483;28;862;-73
2022/06/17 04:55:16;;;;;;;;;;;;;;;;;;352450;28;884;-71
2022/06/17 04:55:28;;;;;;;;;;;;;;;;;;352538;28;773;-71
2022/06/17 04:55:41;;;;;;;;;;;;;;;;;;352375;28;972;-72
2022/06/17 04:55:51;;;;;;;;;;;;;;;;;;353719;28;1427;-72
2022/06/17 04:56:05;;;;;;;;;;;;;;;;;;353826;28;979;-71
2022/06/17 04:56:26;;;;;;;;;;;;;;;;;;353898;28;864;-71
2022/06/17 04:56:45;;;;;;;;;;;;;;;;;;353861;28;1161;-71
2022/06/17 04:56:57;;;;;;;;;;;;;;;;;;353873;28;1007;-72
2022/06/17 04:57:09;;;;;;;;;;;;;;;;;;353977;28;927;-72
2022/06/17 04:57:19;;;;;;;;;;;;;;;;;;353935;27;1333;-72
2022/06/17 04:57:30;;;;;;;;;;;;;;;;;;353992;27;789;-71
2022/06/17 04:57:40;;;;;;;;;;;;;;;;;;353904;27;1120;-71
2022/06/17 04:57:51;;;;;;;;;;;;;;;;;;353930;27;976;-72
2022/06/17 04:58:01;;;;;;;;;;;;;;;;;;353828;27;1169;-72
2022/06/17 04:58:13;;;;;;;;;;;;;;;;;;354008;27;880;-72
2022/06/17 04:58:24;;;;;;;;;;;;;;;;;;353814;27;1233;-72
2022/06/17 04:58:34;;;;;;;;;;;;;;;;;;352522;27;1502;-72
2022/06/17 04:58:45;;;;;;;;;;;;;;;;;;352555;28;842;-72
2022/06/17 04:58:56;;;;;;;;;;;;;;;;;;352104;28;1495;-71
2022/06/17 04:59:28;;;;;;;;;;;;;;;;;;352513;28;1006;-72
2022/06/17 04:59:44;;;;;;;;;;;;;;;;;;352583;28;849;-71
2022/06/17 04:59:58;;;;;;;;;;;;;;;;;;353854;28;1387;-71
2022/06/17 05:00:19;;;;;;;;;;;;;;;;;;353929;27;983;-71
2022/06/17 05:00:30;;;;;;;;;;;;;;;;;;352730;27;1307;-71
2022/06/17 05:00:43;;;;;;;;;;;;;;;;;;352534;27;927;-71
2022/06/17 05:00:55;;;;;;;;;;;;;;;;;;351893;28;1027;-71
2022/06/17 05:01:05;;;;;;;;;;;;;;;;;;351121;28;853;-72
2022/06/17 05:01:18;;;;;;;;;;;;;;;;;;351154;28;896;-72
2022/06/17 05:01:30;;;;;;;;;;;;;;;;;;351115;28;960;-71
2022/06/17 05:01:41;;;;;;;;;;;;;;;;;;351046;28;1894;-71
2022/06/17 05:01:52;;;;;;;;;;;;;;;;;;351091;28;822;-71
2022/06/17 05:02:05;;;;;;;;;;;;;;;;;;350986;28;1011;-71
2022/06/17 05:02:24;;;;;;;;;;;;;;;;;;351016;28;841;-71
2022/06/17 05:02:34;;;;;;;;;;;;;;;;;;351072;28;841;-71
2022/06/17 05:02:44;;;;;;;;;;;;;;;;;;351044;28;869;-71
2022/06/17 05:02:55;;;;;;;;;;;;;;;;;;351068;28;939;-71
2022/06/17 05:03:07;;;;;;;;;;;;;;;;;;351004;28;794;-71
2022/06/17 05:03:18;;;;;;;;;;;;;;;;;;351012;28;928;-71
2022/06/17 05:03:29;;;;;;;;;;;;;;;;;;351032;28;1063;-71
2022/06/17 05:03:40;;;;;;;;;;;;;;;;;;351028;28;908;-71
2022/06/17 05:03:51;;;;;;;;;;;;;;;;;;350929;28;1000;-70
2022/06/17 05:04:02;;;;;;;;;;;;;;;;;;351031;28;980;-71
2022/06/17 05:04:12;;;;;;;;;;;;;;;;;;351129;28;912;-71
2022/06/17 05:04:23;;;;;;;;;;;;;;;;;;351138;28;825;-72
2022/06/17 05:04:34;;;;;;;;;;;;;;;;;;351106;28;1139;-71
2022/06/17 05:04:45;;;;;;;;;;;;;;;;;;351180;28;845;-71
2022/06/17 05:05:00;;;;;;;;;;;;;;;;;;351110;28;903;-71
2022/06/17 05:05:13;;;;;;;;;;;;;;;;;;351156;28;821;-69
2022/06/17 05:05:37;;;;;;;;;;;;;;;;;;351118;28;967;-69
2022/06/17 05:05:47;;;;;;;;;;;;;;;;;;351075;28;749;-70
2022/06/17 05:05:58;;;;;;;;;;;;;;;;;;351103;27;861;-71
2022/06/17 05:06:09;;;;;;;;;;;;;;;;;;352041;28;1103;-71
2022/06/17 05:06:19;;;;;;;;;;;;;;;;;;352445;28;994;-71
2022/06/17 05:06:29;;;;;;;;;;;;;;;;;;352157;28;1809;-71
2022/06/17 05:06:40;;;;;;;;;;;;;;;;;;352435;28;908;-71
2022/06/17 05:06:50;;;;;;;;;;;;;;;;;;352481;27;782;-71
2022/06/17 05:07:01;;;;;;;;;;;;;;;;;;352483;28;904;-71
2022/06/17 05:07:11;;;;;;;;;;;;;;;;;;352353;28;956;-71
2022/06/17 05:07:21;;;;;;;;;;;;;;;;;;352426;28;896;-71
2022/06/17 05:07:37;;;;;;;;;;;;;;;;;;352484;28;980;-71
2022/06/17 05:07:49;;;;;;;;;;;;;;;;;;352423;28;1175;-71
2022/06/17 05:08:01;;;;;;;;;;;;;;;;;;352396;28;892;-72
2022/06/17 05:08:17;;;;;;;;;;;;;;;;;;352447;28;1579;-71
2022/06/17 05:08:30;;;;;;;;;;;;;;;;;;352531;27;944;-71
2022/06/17 05:08:42;;;;;;;;;;;;;;;;;;352441;27;1247;-71
2022/06/17 05:09:01;;;;;;;;;;;;;;;;;;352520;28;781;-71
2022/06/17 05:09:20;;;;;;;;;;;;;;;;;;352520;27;921;-71
2022/06/17 05:09:34;;;;;;;;;;;;;;;;;;352515;27;952;-71
2022/06/17 05:09:54;;;;;;;;;;;;;;;;;;352572;27;928;-72
2022/06/17 05:10:07;;;;;;;;;;;;;;;;;;352392;28;1065;-71
2022/06/17 05:10:22;;;;;;;;;;;;;;;;;;352538;27;833;-71
2022/06/17 05:10:35;;;;;;;;;;;;;;;;;;352555;27;800;-72
2022/06/17 05:10:48;;;;;;;;;;;;;;;;;;352475;28;844;-73
2022/06/17 05:11:01;;;;;;;;;;;;;;;;;;352640;28;904;-72
2022/06/17 05:11:16;;;;;;;;;;;;;;;;;;352532;28;861;-72
2022/06/17 05:11:31;;;;;;;;;;;;;;;;;;352454;28;1058;-74
2022/06/17 05:11:43;;;;;;;;;;;;;;;;;;352491;28;1066;-72
2022/06/17 05:12:00;;;;;;;;;;;;;;;;;;352434;28;966;-71
2022/06/17 05:12:14;;;;;;;;;;;;;;;;;;352473;28;880;-72
2022/06/17 05:12:24;;;;;;;;;;;;;;;;;;352471;28;901;-75
2022/06/17 05:12:34;;;;;;;;;;;;;;;;;;352504;28;841;-72
2022/06/17 05:12:47;;;;;;;;;;;;;;;;;;352547;28;869;-71
2022/06/17 05:12:57;;;;;;;;;;;;;;;;;;352353;28;1098;-72
2022/06/17 05:13:13;;;;;;;;;;;;;;;;;;352565;28;1019;-73
2022/06/17 05:13:27;;;;;;;;;;;;;;;;;;352481;27;883;-72
2022/06/17 05:13:44;;;;;;;;;;;;;;;;;;352532;28;905;-72
2022/06/17 05:14:00;;;;;;;;;;;;;;;;;;352496;28;1441;-72
2022/06/17 05:14:17;;;;;;;;;;;;;;;;;;352480;27;860;-73
2022/06/17 05:14:30;;;;;;;;;;;;;;;;;;352479;28;952;-72
2022/06/17 05:14:44;;;;;;;;;;;;;;;;;;352494;28;1077;-73
2022/06/17 05:14:59;;;;;;;;;;;;;;;;;;352555;28;932;-73
2022/06/17 05:15:11;;;;;;;;;;;;;;;;;;352503;28;924;-72
2022/06/17 05:15:22;;;;;;;;;;;;;;;;;;352570;27;761;-72
2022/06/17 05:15:32;;;;;;;;;;;;;;;;;;352427;28;769;-72
2022/06/17 05:15:43;;;;;;;;;;;;;;;;;;352512;28;912;-72
2022/06/17 05:15:53;;;;;;;;;;;;;;;;;;352475;27;998;-72
2022/06/17 05:16:05;;;;;;;;;;;;;;;;;;352524;28;948;-71
2022/06/17 05:16:15;;;;;;;;;;;;;;;;;;352470;28;983;-73
2022/06/17 05:16:26;;;;;;;;;;;;;;;;;;352393;28;995;-72
2022/06/17 05:16:36;;;;;;;;;;;;;;;;;;352519;28;944;-72
2022/06/17 05:16:46;;;;;;;;;;;;;;;;;;352475;28;901;-72
2022/06/17 05:16:57;;;;;;;;;;;;;;;;;;352538;28;963;-71
2022/06/17 05:17:07;;;;;;;;;;;;;;;;;;352587;27;876;-71
2022/06/17 05:17:18;;;;;;;;;;;;;;;;;;352510;28;805;-72
2022/06/17 05:17:28;;;;;;;;;;;;;;;;;;352504;27;988;-72
2022/06/17 05:17:39;;;;;;;;;;;;;;;;;;352487;27;933;-72
2022/06/17 05:17:49;;;;;;;;;;;;;;;;;;352365;28;923;-74
2022/06/17 05:18:00;;;;;;;;;;;;;;;;;;351623;28;948;-74
2022/06/17 05:18:11;;;;;;;;;;;;;;;;;;351125;28;932;-73
2022/06/17 05:18:21;;;;;;;;;;;;;;;;;;351104;28;928;-72
2022/06/17 05:18:31;;;;;;;;;;;;;;;;;;351024;28;841;-73
2022/06/17 05:18:41;;;;;;;;;;;;;;;;;;351131;28;913;-73
2022/06/17 05:18:51;;;;;;;;;;;;;;;;;;351102;28;940;-73
2022/06/17 05:19:02;;;;;;;;;;;;;;;;;;351031;28;983;-73
2022/06/17 05:19:12;;;;;;;;;;;;;;;;;;352126;28;928;-73
2022/06/17 05:19:22;;;;;;;;;;;;;;;;;;352516;28;912;-74
2022/06/17 05:19:32;;;;;;;;;;;;;;;;;;352463;28;983;-73
2022/06/17 05:19:42;;;;;;;;;;;;;;;;;;352547;28;924;-73
2022/06/17 05:19:53;;;;;;;;;;;;;;;;;;352549;28;900;-70
2022/06/17 05:20:03;;;;;;;;;;;;;;;;;;352485;27;963;-71
2022/06/17 05:20:16;;;;;;;;;;;;;;;;;;352449;28;1189;-70
2022/06/17 05:20:26;;;;;;;;;;;;;;;;;;352461;27;928;-71
2022/06/17 05:20:36;;;;;;;;;;;;;;;;;;352461;28;967;-71
2022/06/17 05:20:47;;;;;;;;;;;;;;;;;;352541;28;979;-71
2022/06/17 05:20:57;;;;;;;;;;;;;;;;;;352366;28;1016;-72
2022/06/17 05:21:16;;;;;;;;;;;;;;;;;;351872;28;1846;-71
2022/06/17 05:21:26;;;;;;;;;;;;;;;;;;351061;28;837;-72
2022/06/17 05:21:36;;;;;;;;;;;;;;;;;;351063;28;1914;-72
2022/06/17 05:21:46;;;;;;;;;;;;;;;;;;351127;28;937;-71
2022/06/17 05:21:57;;;;;;;;;;;;;;;;;;351028;28;929;-71
2022/06/17 05:22:15;;;;;;;;;;;;;;;;;;351098;28;1004;-71
2022/06/17 05:22:44;;;;;;;;;;;;;;;;;;351027;28;975;-72
2022/06/17 05:22:56;;;;;;;;;;;;;;;;;;351053;28;933;-70